Date,TemperatureHighF,TemperatureAvgF,TemperatureLowF,DewpointHighF,DewpointAvgF,DewpointLowF,HumidityHigh,HumidityAvg,HumidityLow,PressureMaxIn,PressureMinIn,WindSpeedMaxMPH,WindSpeedAvgMPH,GustSpeedMaxMPH,PrecipitationSumIn
2013-1-1,36.7,31.3,21.6,27.3,22.6,8.8,90,71,57,29.90,29.74,7,1,9,0.03
2013-1-2,26.7,24.5,22.4,15.4,12.5,7.4,65,60,52,30.07,29.98,8,1,11,0.00
2013-1-3,28.1,14.9,2.9,13.1,5.3,-2.9,89,67,41,30.13,29.98,7,0,8,0.00
2013-1-4,37.6,22.6,8.3,25.2,16.5,6.0,95,79,60,29.98,29.83,12,1,12,0.01
2013-1-5,37.5,28.8,24.7,23.2,21.7,20.6,84,75,56,30.22,30.16,1,0,1,0.03
2013-1-6,44.8,38.8,26.3,32.9,30.7,24.8,96,74,58,30.05,29.89,8,0,8,0.01
2013-1-7,38.0,21.8,16.5,23.5,18.5,14.8,94,87,55,30.35,30.07,1,0,1,0.00
2013-1-8,47.4,27.7,12.4,32.0,21.5,10.4,97,80,55,30.36,30.26,13,1,16,0.00
2013-1-9,44.1,30.8,18.1,38.3,27.0,16.7,95,87,71,30.35,30.02,7,0,11,0.00
2013-1-10,40.7,31.3,25.8,26.6,24.5,22.7,89,77,57,30.49,30.20,12,0,12,0.00
2013-1-11,33.7,33.3,33.1,32.9,32.2,31.8,97,96,95,30.24,30.16,1,0,1,0.15
2013-1-12,43.3,38.8,35.1,42.8,38.3,34.6,98,98,97,30.12,30.05,4,0,4,0.09
2013-1-13,51.9,44.2,36.8,48.7,43.1,36.3,99,96,87,30.11,29.99,7,1,8,0.00
2013-1-14,35.8,35.4,35.1,31.7,31.5,31.3,87,86,85,30.22,30.20,2,0,2,0.03
2013-1-15,34.0,32.4,31.6,30.4,29.3,28.5,91,88,81,30.22,30.21,0,0,1,0.12
2013-1-16,33.1,31.9,30.2,32.6,31.1,28.9,98,97,95,30.09,29.81,2,0,3,0.10
2013-1-17,33.0,31.8,30.2,29.9,22.2,19.3,98,68,58,30.04,29.83,5,0,5,0.24
2013-1-18,25.5,19.5,12.9,8.7,4.6,0.3,82,53,38,30.48,30.23,7,1,7,0.00
2013-1-19,44.3,38.9,35.3,29.6,28.1,27.2,79,66,52,30.24,30.03,14,3,14,0.04
2013-1-20,52.2,46.8,36.5,33.8,29.9,17.3,78,53,41,29.83,29.62,21,2,21,0.00
2013-1-21,28.9,24.0,17.3,23.2,12.9,8.5,92,64,47,30.10,29.88,7,0,7,0.00
2013-1-22,23.3,18.1,12.5,12.9,5.6,-2.9,77,60,38,30.11,29.83,11,1,11,0.00
2013-1-23,12.1,10.3,6.1,-2.1,-3.5,-4.3,63,53,49,30.17,30.14,1,0,4,0.00
2013-1-24,19.9,11.1,-2.4,0.4,-4.5,-7.2,87,52,33,30.27,30.14,4,2,14,0.00
2013-1-25,20.2,17.0,10.0,14.4,6.7,-2.4,87,65,41,30.32,30.06,2,0,9,0.00
2013-1-26,25.6,19.9,14.7,10.4,6.0,2.6,60,54,49,30.28,30.05,3,1,9,0.00
2013-1-27,27.1,17.2,5.9,8.9,3.9,1.8,83,59,36,30.48,30.35,1,0,3,0.00
2013-1-28,30.9,26.5,11.6,29.9,24.7,7.5,96,93,83,30.43,30.00,1,0,2,0.00
2013-1-29,35.1,34.2,33.1,33.1,32.5,31.8,96,94,91,30.18,30.13,3,1,5,0.17
2013-1-30,56.8,52.7,34.0,55.6,51.6,33.5,99,96,91,29.98,29.63,6,2,12,0.00
2013-1-31,59.2,42.6,31.2,58.6,28.1,13.4,98,59,41,29.62,29.08,10,4,14,0.55
2013-2-1,30.1,27.3,23.4,14.9,12.7,6.1,60,54,39,30.04,29.76,3,2,12,0.00
2013-2-2,30.5,24.8,12.3,17.9,11.5,7.3,85,58,40,30.28,30.06,4,1,7,0.00
2013-2-3,26.1,20.1,14.8,19.2,16.2,12.9,93,85,70,30.07,29.76,3,0,5,0.00
2013-2-4,24.9,22.1,18.8,14.6,10.4,7.1,78,61,49,29.95,29.83,3,0,8,0.00
2013-2-5,24.3,23.8,23.5,21.4,20.5,18.7,91,87,81,29.97,29.93,2,0,3,0.00
2013-2-6,30.4,27.8,25.5,14.9,9.2,4.5,52,45,39,30.30,30.21,2,1,6,0.03
2013-2-7,33.4,27.7,19.6,12.6,9.3,7.6,64,46,36,30.51,30.45,2,1,4,0.00
2013-2-8,31.8,29.9,24.7,30.3,27.8,23.7,96,92,83,30.23,29.56,4,2,9,0.00
2013-2-9,22.5,19.3,16.9,21.0,11.4,2.2,95,73,49,30.21,29.62,2,1,8,0.00
2013-2-10,38.2,19.5,2.6,12.5,6.0,-0.6,88,62,24,30.41,30.27,1,0,6,0.03
2013-2-11,46.3,35.7,21.0,45.5,34.6,18.0,98,96,88,30.17,29.66,2,0,7,0.07
2013-2-12,40.8,37.5,34.4,32.1,28.7,27.3,76,70,66,29.88,29.77,3,1,4,0.00
2013-2-13,35.9,33.2,30.7,27.1,25.2,24.3,86,73,64,29.73,29.70,0,0,0,0.00
2013-2-14,36.3,33.0,29.4,24.1,23.5,23.0,78,68,61,29.99,29.97,0,0,0,0.01
2013-2-15,46.4,37.6,27.1,36.9,33.1,26.4,98,84,65,30.02,29.93,5,1,6,0.00
2013-2-16,36.3,34.5,32.0,31.3,30.3,24.5,93,85,72,29.94,29.81,2,0,4,0.01
2013-2-17,25.8,22.7,20.4,11.6,6.7,2.5,66,50,43,29.68,29.49,6,4,23,0.00
2013-2-18,31.4,25.8,15.7,9.7,3.4,1.4,76,39,28,30.20,30.06,4,3,16,0.00
2013-2-20,28.8,26.1,23.6,12.9,11.0,10.2,57,52,48,29.84,29.76,3,2,10,0.01
2013-2-22,32.2,32.1,32.0,27.1,26.7,26.4,82,80,79,30.34,30.34,0,0,0,0.00
2013-2-23,34.8,33.2,31.5,33.0,31.1,26.6,96,92,82,30.23,29.87,4,2,8,0.30
2013-2-24,33.9,33.4,32.6,32.9,32.4,31.6,96,96,96,29.84,29.81,0,0,8,0.50
2013-2-25,26.8,26.6,26.4,25.8,25.6,25.4,96,96,96,30.01,30.00,0,0,0,0.00
2013-2-26,36.3,35.1,34.8,29.7,28.7,25.6,81,78,65,30.23,30.11,6,4,10,0.00
2013-2-28,43.9,37.0,34.4,43.1,36.5,33.9,99,98,97,29.55,29.54,2,0,8,0.06
2013-3-1,41.0,36.1,28.6,37.9,33.6,27.3,99,91,65,29.69,29.58,2,1,7,0.00
2013-3-2,38.3,34.7,32.7,27.6,27.1,26.6,79,74,64,29.71,29.65,2,0,7,0.00
2013-3-3,37.5,33.2,29.5,25.8,24.3,23.0,78,70,62,29.66,29.59,2,1,11,0.00
2013-3-4,39.1,31.1,26.0,24.9,21.9,20.1,79,69,55,29.74,29.64,4,2,13,0.00
2013-3-5,43.3,34.2,27.3,29.8,27.3,21.3,89,77,56,30.05,29.89,2,0,13,0.00
2013-3-6,40.6,35.8,29.2,35.8,31.9,26.6,94,86,72,30.02,29.93,9,3,18,0.03
2013-3-7,33.8,31.3,30.6,30.0,29.5,28.0,95,93,82,30.00,29.93,4,0,14,0.00
2013-3-8,32.7,30.6,29.9,31.4,29.6,28.8,96,96,94,29.98,29.92,0,0,1,0.00
2013-3-9,54.8,47.1,34.2,24.9,21.2,12.9,68,38,20,30.22,30.18,2,1,5,0.23
2013-3-10,50.3,40.2,28.3,34.9,32.1,27.1,95,74,50,30.40,30.31,5,1,6,0.00
2013-3-11,50.0,41.0,33.2,42.0,37.1,30.6,95,86,71,30.33,30.14,5,1,8,0.00
2013-3-12,53.2,48.1,37.8,52.2,46.5,36.9,98,94,86,30.14,29.72,10,3,16,0.89
2013-3-13,51.4,40.8,29.6,41.2,29.9,23.8,92,67,38,29.81,29.73,3,1,8,0.00
2013-3-14,35.8,30.1,27.0,28.8,19.6,11.5,92,66,41,29.87,29.77,5,2,11,0.00
2013-3-15,42.2,32.1,24.4,29.2,17.5,8.7,82,56,33,29.91,29.69,5,2,13,0.00
2013-3-16,39.9,33.4,26.3,28.4,19.8,9.8,84,60,31,29.87,29.72,2,0,7,0.00
2013-3-17,37.6,30.6,24.6,27.7,15.7,7.4,91,57,29,30.11,29.88,4,1,8,0.00
2013-3-18,36.7,29.5,16.5,27.5,13.4,2.3,94,55,26,30.44,30.15,7,3,8,0.00
2013-3-19,38.7,33.2,29.0,36.6,31.4,27.5,96,93,89,30.15,29.60,6,2,8,0.54
2013-3-20,41.8,32.4,24.6,30.6,21.4,17.5,94,66,39,29.82,29.71,4,1,8,0.00
2013-3-21,37.2,30.5,24.8,26.8,23.7,20.1,89,76,56,29.83,29.62,2,0,5,0.00
2013-3-22,40.9,33.4,23.1,23.5,19.5,13.1,77,57,41,29.80,29.65,3,1,6,0.00
2013-3-23,43.9,35.6,26.4,25.4,21.9,18.6,85,59,36,29.85,29.70,5,2,14,0.00
2013-3-24,48.3,37.0,26.0,28.9,23.9,19.9,84,61,39,29.87,29.70,6,1,8,0.00
2013-3-25,44.4,35.0,28.1,31.4,27.6,25.3,92,76,47,29.75,29.44,7,2,10,0.00
2013-3-26,48.8,38.3,26.3,32.8,27.0,21.2,88,66,41,29.81,29.58,2,0,5,0.00
2013-3-27,54.6,38.0,21.3,29.3,24.8,19.6,94,63,33,29.89,29.77,4,1,8,0.00
2013-3-28,49.5,40.8,29.8,35.7,31.6,26.5,89,71,49,30.04,29.88,2,0,5,0.00
2013-3-29,56.5,45.1,29.9,35.5,31.3,28.1,94,62,36,30.07,29.98,3,1,6,0.00
2013-3-30,58.2,44.8,30.2,32.5,26.3,18.7,89,53,22,30.11,30.01,3,1,6,0.00
2013-3-31,57.1,40.7,23.7,43.3,29.7,21.5,95,69,32,30.13,29.65,8,2,14,0.09
2013-4-1,60.0,46.3,33.6,48.4,39.5,19.6,97,79,54,29.83,29.55,6,2,10,0.12
2013-4-2,43.1,33.5,22.5,22.9,15.9,9.5,90,51,26,30.00,29.83,5,1,9,0.00
2013-4-3,45.5,35.5,25.5,18.3,14.6,11.9,64,43,27,30.22,29.99,5,2,13,0.00
2013-4-4,52.5,36.7,24.4,31.8,20.9,13.4,80,55,25,30.35,30.09,3,1,6,0.00
2013-4-5,61.7,45.9,37.5,36.0,27.7,10.4,82,55,21,30.09,29.64,4,1,10,0.00
2013-4-6,50.1,39.8,32.1,25.6,14.4,5.9,68,39,18,30.28,29.91,4,2,8,0.00
2013-4-7,54.6,49.5,45.8,42.5,36.7,25.4,87,63,43,30.28,30.03,9,3,16,0.00
2013-4-8,70.4,52.0,36.5,45.4,39.6,35.5,98,69,30,30.05,29.97,3,1,5,0.00
2013-4-9,74.2,60.7,51.8,45.4,43.8,42.3,76,56,33,29.99,29.91,6,1,9,0.02
2013-4-10,67.9,53.6,45.7,53.3,47.5,43.2,97,81,56,29.99,29.84,8,2,11,0.29
2013-4-11,60.2,50.8,45.0,48.7,45.0,35.8,98,81,59,30.10,29.80,6,2,7,0.01
2013-4-12,45.0,40.7,37.6,37.2,34.8,28.9,95,80,60,30.11,29.74,13,4,17,0.30
2013-4-13,54.3,44.5,36.7,40.6,36.4,34.3,95,75,48,29.94,29.72,3,1,7,0.03
2013-4-14,51.1,40.0,36.5,41.0,36.9,34.7,97,89,61,30.01,29.93,2,0,2,0.00
2013-4-16,55.1,54.4,53.9,49.9,49.4,48.9,84,83,82,30.18,30.12,3,2,6,0.00
2013-4-17,69.6,57.4,41.0,52.7,40.9,32.0,92,59,26,30.32,30.10,5,1,7,0.00
2013-4-18,58.9,47.2,32.3,48.1,37.1,29.8,97,72,35,30.40,30.14,9,3,13,0.00
2013-4-19,70.2,59.4,50.4,62.7,57.4,48.1,99,94,76,30.14,29.68,17,2,17,0.07
2013-4-20,61.8,53.4,43.3,60.9,42.1,28.6,97,70,36,30.10,29.63,11,1,11,0.53
2013-4-22,54.3,46.6,38.3,35.8,32.2,26.3,73,59,35,30.59,30.55,17,5,17,0.00
2013-4-23,44.4,41.2,37.7,40.9,37.0,30.3,92,85,73,30.55,30.06,15,1,15,0.00
2013-4-24,71.5,52.4,42.0,48.7,43.3,38.9,95,75,36,30.06,29.85,12,2,12,0.00
2013-4-25,63.9,52.5,35.1,50.4,36.3,20.9,96,60,23,30.27,29.87,12,1,12,0.05
2013-4-26,66.8,48.1,28.2,41.2,33.5,26.7,95,63,27,30.40,30.27,12,1,12,0.00
2013-4-27,66.3,48.2,31.9,43.7,38.0,30.2,97,72,28,30.41,30.30,13,1,13,0.00
2013-4-28,67.8,50.0,31.8,43.7,35.1,27.3,98,64,26,30.34,30.24,12,1,12,0.00
2013-4-29,63.7,53.0,42.6,48.4,38.7,25.0,96,64,27,30.28,30.22,14,2,14,0.00
2013-5-11,66.9,61.4,58.5,63.2,59.7,57.7,98,94,86,29.78,29.70,2,1,10,0.32
2013-5-12,68.3,59.8,58.3,59.3,58.1,55.2,99,95,63,29.70,29.62,1,0,5,0.04
2013-5-13,59.6,52.4,37.3,39.0,32.9,28.6,97,49,32,30.03,29.95,3,1,10,0.00
2013-5-14,40.6,39.7,38.6,35.2,35.0,34.5,85,83,81,30.06,30.05,0,0,1,0.00
2013-5-15,33.4,33.0,32.7,32.6,32.2,31.9,97,97,97,30.06,30.06,0,0,1,0.00
2013-5-16,66.4,64.4,62.9,52.2,51.5,50.7,67,63,57,29.76,29.73,1,0,6,0.00
2013-5-18,42.2,42.2,42.2,41.7,41.7,41.7,98,98,98,30.30,30.30,0,0,6,0.00
2013-5-19,54.6,54.5,54.5,53.8,53.7,53.7,97,97,97,30.26,30.25,3,2,6,0.11
2013-5-20,82.7,66.1,55.8,67.7,61.7,55.2,99,87,59,30.15,29.93,2,0,6,0.01
2013-5-21,87.6,77.4,59.4,70.8,67.0,58.8,98,72,56,29.97,29.83,3,1,9,0.00
2013-5-22,62.7,56.9,52.5,59.7,55.1,50.5,97,94,90,29.95,29.91,2,1,5,0.04
2013-5-23,69.1,65.6,64.1,65.4,63.7,62.8,97,94,88,29.87,29.83,3,1,11,0.42
2013-5-24,72.0,64.4,58.9,66.9,62.2,53.8,99,93,76,29.75,29.66,2,0,6,0.20
2013-5-25,48.9,46.3,43.0,46.8,44.6,40.8,98,94,87,29.82,29.76,2,1,8,0.28
2013-5-26,58.2,48.2,41.6,46.7,42.5,39.4,93,81,63,30.05,29.80,3,1,9,0.01
2013-5-27,62.9,53.5,36.5,44.7,41.1,35.7,97,66,44,30.18,30.15,2,1,10,0.00
2013-5-28,57.6,57.4,57.0,55.9,55.2,54.1,94,93,90,30.18,30.16,1,1,8,0.00
2013-5-29,67.2,61.6,56.7,65.4,60.4,55.8,97,96,92,30.17,30.05,1,0,2,0.32
2013-5-30,74.6,68.4,61.4,68.7,65.8,61.1,99,92,82,30.10,30.04,1,0,3,0.02
2013-5-31,66.8,63.7,61.5,65.3,62.8,60.9,98,97,95,30.08,30.07,0,0,0,0.00
2013-6-1,84.8,70.6,60.3,71.9,64.8,59.4,97,84,63,30.00,29.98,2,1,5,0.00
2013-6-2,83.6,78.1,67.1,71.4,68.4,65.0,93,73,63,29.88,29.78,2,1,7,0.00
2013-6-3,73.6,68.5,64.2,68.8,65.9,63.6,98,92,84,29.83,29.79,2,1,7,0.67
2013-6-4,74.2,59.6,51.9,53.3,48.8,40.0,93,71,41,30.07,29.85,2,0,8,0.00
2013-6-5,58.2,52.0,46.2,54.3,49.5,45.4,99,92,81,30.20,30.09,0,0,0,0.00
2013-6-6,69.8,62.5,45.8,60.1,54.5,45.0,98,77,56,30.19,30.10,6,2,10,0.00
2013-6-7,59.4,56.5,55.5,58.8,55.8,54.7,98,97,97,30.06,29.97,4,1,9,0.57
2013-6-8,79.8,58.0,53.5,65.6,56.0,53.2,100,94,59,29.96,29.57,2,0,8,0.76
2013-6-9,66.2,59.7,54.9,62.7,58.6,54.3,99,97,88,30.14,30.05,0,0,0,0.00
2013-6-10,70.3,62.9,54.0,64.6,59.6,53.4,99,90,74,30.17,29.92,5,2,8,0.73
2013-6-11,78.1,65.3,58.7,69.7,63.1,57.9,99,93,70,29.93,29.55,3,0,6,1.09
2013-6-12,72.9,63.4,53.7,61.3,55.8,52.6,99,78,54,29.83,29.60,3,1,12,0.00
2013-6-13,57.1,52.8,49.1,54.9,51.7,48.3,98,96,92,29.82,29.63,4,1,5,0.45
2013-6-14,57.1,53.7,51.5,55.7,52.6,50.7,97,96,95,29.78,29.57,1,0,3,1.05
2013-6-15,80.5,71.8,52.1,56.3,52.6,49.5,98,55,34,29.95,29.81,1,0,7,0.00
2013-6-16,78.2,69.8,50.3,64.9,56.3,49.5,97,65,47,29.97,29.74,2,0,6,0.00
2013-6-17,64.6,64.4,64.2,63.1,62.9,62.7,95,95,95,29.89,29.89,0,0,11,0.00
2013-6-18,63.3,60.6,55.4,62.1,59.7,55.1,99,97,96,29.91,29.87,0,0,2,0.05
2013-6-19,59.2,58.6,57.4,58.2,56.5,55.1,97,93,89,30.11,29.89,0,0,2,0.08
2013-6-20,55.6,51.6,48.4,53.6,50.5,47.6,97,96,93,30.26,30.15,0,0,0,0.00
2013-6-21,55.6,55.5,55.5,53.8,53.7,53.5,94,94,93,30.27,30.26,0,0,0,0.00
2013-6-24,93.7,81.2,70.4,75.1,72.3,68.9,95,76,54,30.02,29.93,1,0,4,0.00
2013-6-25,89.4,79.1,63.6,73.3,69.6,62.6,97,75,56,29.96,29.75,1,0,7,0.00
2013-6-26,86.8,77.6,68.3,74.1,71.2,67.7,99,82,61,29.83,29.75,1,0,8,0.01
2013-6-27,76.6,70.4,65.1,72.1,68.7,64.8,99,95,85,29.82,29.67,4,1,7,0.14
2013-6-28,80.9,74.0,67.7,74.4,70.9,66.8,99,91,75,29.67,29.50,4,1,9,0.01
2013-6-29,81.4,76.3,70.7,71.8,70.0,68.3,93,81,69,29.72,29.58,3,1,5,0.00
2013-6-30,75.7,71.7,71.0,70.6,69.5,68.7,95,93,83,29.88,29.72,3,0,4,0.00
2013-7-1,72.1,72.1,72.1,71.5,71.5,71.5,98,98,98,30.08,30.07,0,0,0,0.08
2013-7-2,78.7,74.0,72.0,73.1,71.6,71.1,98,92,83,30.18,30.08,1,0,3,0.03
2013-7-3,84.4,76.1,69.3,74.7,72.1,69.0,99,88,72,30.20,30.17,1,0,4,0.00
2013-7-4,77.5,73.9,71.9,75.0,72.4,71.0,98,95,92,30.23,30.19,0,0,2,0.00
2013-7-5,93.2,85.8,72.9,77.7,75.0,71.1,94,71,57,30.18,30.07,2,1,9,0.00
2013-7-6,73.2,71.4,70.0,71.4,70.1,69.1,97,96,94,30.09,30.09,0,0,1,0.00
2013-7-7,91.6,82.4,70.4,77.6,74.8,69.8,98,79,60,30.03,29.92,1,0,5,0.00
2013-7-8,90.5,83.8,70.6,75.7,72.8,70.0,98,71,56,29.98,29.92,1,0,3,0.00
2013-7-9,82.6,74.0,67.6,74.4,70.9,66.4,98,90,72,30.08,30.01,3,0,4,0.33
2013-7-10,79.1,79.0,78.9,75.2,74.9,74.7,88,87,87,29.81,29.80,0,0,0,0.00
2013-7-11,80.5,79.0,76.7,75.9,75.2,74.5,94,88,83,29.87,29.83,0,0,1,1.42
2013-7-12,72.2,69.4,67.7,65.7,61.7,59.8,80,77,74,30.15,30.08,1,0,7,0.00
2013-7-13,79.1,71.4,65.7,75.3,68.9,61.2,98,92,81,30.30,30.15,2,0,5,0.03
2013-7-14,92.1,78.5,71.9,79.3,74.2,71.6,99,88,59,30.31,30.20,1,0,5,0.00
2013-7-15,94.6,79.5,68.9,79.1,72.9,68.6,100,83,51,30.21,30.10,1,0,4,0.00
2013-7-16,94.9,82.6,66.9,76.1,72.0,66.6,100,74,45,30.16,30.09,1,0,5,0.00
2013-7-17,94.3,76.9,67.1,78.2,71.3,66.7,100,85,47,30.18,30.10,1,0,4,0.00
2013-7-20,92.0,80.0,69.9,80.7,75.3,69.0,99,87,57,29.82,29.67,2,0,11,0.01
2013-7-21,86.1,73.2,65.0,71.5,67.1,63.8,98,83,52,29.98,29.82,2,0,4,0.03
2013-7-22,80.3,72.6,64.7,73.0,69.3,64.1,99,90,77,29.98,29.84,4,1,5,0.00
2013-7-23,86.3,74.6,70.9,77.4,72.9,70.3,100,95,70,29.84,29.56,2,0,8,0.37
2013-7-24,70.6,68.7,67.7,67.2,63.1,59.7,93,83,74,29.91,29.82,0,0,0,0.00
2013-7-25,68.3,59.8,56.7,60.6,56.5,52.2,100,90,73,30.07,29.91,0,0,6,2.08
2013-7-26,70.0,63.4,58.3,68.8,62.5,58.3,100,97,83,30.03,29.96,1,0,5,0.22
2013-7-27,84.2,70.0,59.8,68.6,64.4,59.5,100,85,49,30.05,29.99,2,0,5,0.01
2013-7-28,85.2,71.4,63.8,71.6,66.4,63.2,99,86,50,30.01,29.95,1,0,3,0.00
2013-7-29,86.0,72.6,63.3,75.2,69.1,62.7,99,90,62,30.05,29.96,3,0,7,0.04
2013-7-30,82.9,67.3,56.8,67.7,60.8,56.5,99,82,50,30.12,30.05,1,0,4,0.00
2013-7-31,83.0,67.1,53.8,67.2,61.0,53.4,100,83,51,30.14,30.04,1,0,3,0.01
2013-8-1,77.3,65.9,57.2,69.1,62.8,56.9,100,90,64,30.05,29.86,4,0,7,0.02
2013-8-2,84.1,71.3,62.6,68.7,64.9,61.7,99,83,51,29.88,29.78,1,0,5,0.08
2013-8-3,79.0,65.9,60.4,68.1,63.5,59.8,99,93,66,29.88,29.81,1,0,5,0.03
2013-8-4,61.4,57.6,54.8,58.7,55.8,53.7,96,94,91,29.91,29.88,0,0,0,0.01
2013-8-5,78.7,61.7,48.8,58.8,52.3,48.2,99,76,38,30.05,29.91,2,0,4,0.00
2013-8-6,78.4,61.9,46.0,60.9,53.8,45.5,100,79,42,30.14,30.05,3,0,6,0.00
2013-8-7,76.0,63.8,51.0,64.7,58.3,50.5,100,84,58,30.19,30.11,4,1,6,0.00
2013-8-8,80.4,71.6,65.7,73.3,68.6,63.4,97,90,77,30.12,30.02,1,0,4,0.02
2013-8-9,75.2,72.9,71.1,74.9,71.9,70.2,99,97,92,30.04,29.78,4,0,4,1.15
2013-8-10,84.1,70.7,57.4,71.0,65.7,56.6,100,86,54,30.03,29.81,2,0,3,0.00
2013-8-11,81.0,63.6,49.2,62.7,55.9,48.8,100,80,44,30.10,30.02,1,0,3,0.01
2013-8-12,83.0,67.2,55.6,66.1,60.9,55.0,100,83,48,30.04,29.93,1,0,1,0.00
2013-8-13,74.4,65.8,59.2,69.1,64.4,58.6,100,95,76,29.94,29.69,2,0,3,0.06
2013-8-14,74.5,63.7,53.9,62.3,55.9,52.3,99,78,51,29.99,29.70,2,0,8,0.00
2013-8-15,78.0,61.3,47.7,60.3,53.5,47.2,99,79,40,30.13,29.99,1,0,3,0.00
2013-8-16,81.4,62.4,48.3,61.9,54.9,47.8,100,80,42,30.21,30.12,1,0,3,0.00
2013-8-17,84.1,68.4,51.3,67.3,59.8,50.8,100,78,41,30.28,30.21,1,0,2,0.00
2013-8-18,76.8,63.9,55.1,66.1,60.0,54.5,99,89,57,30.28,30.11,2,0,2,0.01
2013-8-19,78.6,65.9,54.2,67.9,61.8,53.9,100,88,60,30.11,29.98,1,0,2,0.01
2013-8-20,87.3,70.2,57.3,71.0,62.6,57.0,100,81,46,30.09,30.00,1,0,4,0.00
2013-8-23,80.5,80.1,79.6,62.9,62.2,57.4,56,54,52,30.11,29.96,4,0,4,0.00
2013-8-24,77.2,62.1,52.2,59.9,56.8,51.9,99,85,55,30.28,30.11,0,0,0,0.00
2013-8-25,59.5,58.6,57.8,57.0,56.8,56.4,95,94,91,30.23,30.22,1,0,1,0.01
2013-8-26,71.6,66.3,58.9,66.4,63.4,58.1,98,91,75,30.18,29.92,2,0,2,0.03
2013-8-27,84.3,73.9,67.4,75.1,70.3,67.1,100,90,72,29.90,29.81,3,0,3,1.62
2013-8-28,78.0,72.6,67.1,73.1,70.5,66.2,98,93,85,29.92,29.85,4,1,4,0.02
2013-8-29,72.2,68.6,66.5,67.1,66.3,64.7,99,93,80,30.02,29.91,4,0,4,0.01
2013-8-30,72.5,66.2,58.5,68.2,63.8,57.7,99,92,85,30.02,29.85,4,0,4,0.00
2013-8-31,73.9,69.7,67.0,71.7,68.9,66.7,99,97,93,29.85,29.82,1,0,1,0.00
2013-9-1,74.3,72.5,70.7,73.4,71.7,69.8,98,97,97,29.86,29.83,3,0,3,0.11
2013-9-2,77.1,74.7,70.9,74.3,72.7,70.2,99,94,84,29.84,29.69,7,0,7,0.22
2013-9-3,74.5,70.0,63.3,72.5,68.9,62.6,100,96,91,29.80,29.68,9,1,9,0.40
2013-9-4,71.1,64.9,60.1,64.3,61.6,59.8,99,90,77,29.92,29.83,0,0,0,0.00
2013-9-5,73.5,65.6,51.0,59.2,55.8,49.6,98,73,57,30.10,29.92,3,0,3,0.00
2013-9-6,45.2,44.9,44.7,44.4,44.3,44.2,98,98,97,30.18,30.12,0,0,0,0.00
2013-9-7,74.6,51.9,42.5,58.8,47.1,42.0,98,87,56,30.12,29.93,3,0,3,0.00
2013-9-9,68.8,56.6,51.7,51.5,50.7,49.2,95,83,51,30.19,30.17,2,0,2,0.00
2013-9-10,75.4,67.7,52.8,71.3,65.2,52.3,98,92,87,30.16,30.06,4,0,4,0.00
2013-9-22,69.0,62.6,52.7,63.4,57.1,45.0,100,84,58,29.82,29.67,2,0,5,0.02
2013-9-23,56.8,47.1,42.5,50.0,44.9,41.7,97,92,78,30.00,29.85,0,0,1,0.00
2013-9-24,47.7,46.1,43.0,46.3,44.9,42.2,97,96,95,30.02,29.90,0,0,0,0.00
2013-9-25,57.4,50.0,41.5,55.0,48.5,41.0,98,95,91,29.97,29.92,1,0,1,0.01
2013-9-26,68.7,60.5,51.1,53.8,51.2,49.2,96,74,52,30.03,29.97,2,0,2,0.00
2013-10-4,70.7,64.5,58.6,62.6,59.5,56.6,93,84,75,30.05,30.00,1,0,4,0.00
2013-10-5,74.3,65.6,57.6,65.3,60.9,57.0,99,86,71,30.09,30.02,1,0,2,0.03
2013-10-6,60.8,58.3,56.8,59.9,57.6,56.0,98,97,97,30.17,30.09,1,0,1,0.23
2013-10-7,73.0,70.7,66.5,68.9,67.5,65.3,96,90,86,29.86,29.83,3,2,11,0.21
2013-10-8,55.0,47.1,43.0,49.3,45.2,42.2,98,93,79,30.35,30.00,0,0,2,0.00
2013-10-9,59.1,45.7,39.5,47.8,43.0,39.0,98,91,64,30.37,30.34,0,0,2,0.00
2013-10-10,62.7,46.9,44.3,55.4,45.1,43.0,97,94,77,30.33,30.17,0,0,0,0.00
2013-10-11,68.5,62.8,55.1,59.1,56.2,52.8,93,80,70,30.12,30.07,4,1,4,0.00
2013-10-12,47.6,45.2,43.9,47.3,44.7,43.1,99,98,97,30.20,30.13,0,0,0,0.00
2013-12-21,57.6,56.3,55.4,48.8,48.3,47.9,77,75,72,29.92,29.90,2,1,7,0.01
2013-12-22,62.4,60.8,56.1,59.5,58.1,54.4,96,91,79,29.94,29.83,6,1,10,0.01
2013-12-23,57.6,42.5,37.8,54.7,40.5,32.7,96,93,83,30.10,29.94,7,1,7,0.64
2013-12-24,37.6,33.7,24.7,32.9,25.8,11.6,83,73,57,30.25,30.08,6,1,6,0.00
2013-12-25,24.7,19.8,15.2,12.0,8.2,5.0,65,60,56,30.45,30.25,5,1,5,0.00
2013-12-26,33.7,30.1,22.3,28.4,24.5,17.9,85,79,77,30.32,30.11,7,0,7,0.00
2013-12-28,50.2,49.3,47.5,28.4,27.7,27.2,47,43,41,30.04,30.03,2,1,14,0.01
2013-12-29,42.5,40.0,38.4,37.7,37.3,36.2,96,90,81,29.94,29.81,1,0,7,0.09
2013-12-30,20.6,20.1,19.7,8.8,8.5,8.4,61,60,59,30.15,30.14,2,1,2,0.00
2013-12-31,23.0,19.0,15.0,15.9,14.6,12.8,93,83,70,30.22,30.10,0,0,3,0.00
2014-1-1,27.4,22.8,15.1,17.6,13.1,10.2,93,67,49,30.40,30.22,3,1,8,0.00
2014-1-2,23.1,19.0,12.2,18.6,15.6,9.5,89,86,80,30.31,29.82,2,1,12,0.00